createdAt,value
2022-11-27T00:00:06.614Z,14.40
2022-11-27T00:01:06.580Z,15.10
2022-11-27T00:02:06.600Z,14.70
2022-11-27T00:03:06.726Z,14.60
2022-11-27T00:04:06.620Z,14.80
2022-11-27T00:05:07.569Z,15.10
2022-11-27T00:06:06.537Z,14.50
2022-11-27T00:07:06.521Z,14.70
2022-11-27T00:08:06.508Z,14.30
2022-11-27T00:09:06.494Z,15.10
2022-11-27T00:10:06.511Z,14.90
2022-11-27T00:11:06.476Z,15.30
2022-11-27T00:12:06.467Z,15.50
2022-11-27T00:13:06.437Z,15.20
2022-11-27T00:14:06.449Z,15.10
2022-11-27T00:15:06.424Z,15.70
2022-11-27T00:16:06.459Z,15.10
2022-11-27T00:17:06.410Z,14.80
2022-11-27T00:18:06.400Z,15.30
2022-11-27T00:19:06.400Z,15.10
2022-11-27T00:20:06.372Z,14.30
2022-11-27T00:21:06.384Z,15.10
2022-11-27T00:22:06.357Z,13.80
2022-11-27T00:23:06.340Z,15.30
2022-11-27T00:24:06.348Z,15.00
2022-11-27T00:25:06.317Z,15.90
2022-11-27T00:26:06.323Z,15.80
2022-11-27T00:27:06.298Z,16.20
2022-11-27T00:28:06.294Z,15.70
2022-11-27T00:29:06.307Z,15.80
2022-11-27T00:30:06.273Z,16.10
2022-11-27T00:31:06.336Z,16.30
2022-11-27T00:32:06.247Z,16.60
2022-11-27T00:33:06.234Z,16.10
2022-11-27T00:34:06.224Z,15.50
2022-11-27T00:35:06.220Z,16.30
2022-11-27T00:36:06.215Z,15.50
2022-11-27T00:37:06.179Z,15.20
2022-11-27T00:38:07.165Z,14.60
2022-11-27T00:39:06.166Z,15.50
2022-11-27T00:40:06.153Z,15.00
2022-11-27T00:41:06.165Z,14.50
2022-11-27T00:42:06.127Z,14.20
2022-11-27T00:43:06.123Z,14.10
2022-11-27T00:44:06.112Z,13.60
2022-11-27T00:45:06.096Z,13.70
2022-11-27T00:46:06.241Z,13.10
2022-11-27T00:47:06.137Z,12.30
2022-11-27T00:48:06.061Z,13.10
2022-11-27T00:49:06.059Z,12.80
2022-11-27T00:50:06.053Z,12.80
2022-11-27T00:51:06.062Z,12.90
2022-11-27T00:52:06.030Z,12.90
2022-11-27T00:53:06.009Z,13.00
2022-11-27T00:54:06.011Z,12.70
2022-11-27T00:55:05.986Z,12.30
2022-11-27T00:56:05.996Z,13.00
2022-11-27T00:57:05.972Z,13.20
2022-11-27T00:58:05.956Z,12.50
2022-11-27T00:59:05.941Z,12.40
2022-11-27T01:00:05.948Z,13.30
2022-11-27T01:01:05.960Z,12.80
2022-11-27T01:02:05.931Z,12.60
2022-11-27T01:03:05.984Z,12.80
2022-11-27T01:04:05.893Z,13.20
2022-11-27T01:05:05.957Z,13.40
2022-11-27T01:06:05.938Z,13.40
2022-11-27T01:07:05.845Z,13.80
2022-11-27T01:08:05.849Z,13.30
2022-11-27T01:09:05.833Z,14.10
2022-11-27T01:10:05.823Z,13.50
2022-11-27T01:11:05.821Z,13.30
2022-11-27T01:12:05.794Z,13.50
2022-11-27T01:13:05.789Z,13.50
2022-11-27T01:14:05.792Z,13.70
2022-11-27T01:15:05.763Z,14.00
2022-11-27T01:16:05.815Z,14.20
2022-11-27T01:17:05.771Z,13.90
2022-11-27T01:18:05.736Z,14.10
2022-11-27T01:19:05.722Z,13.90
2022-11-27T01:20:05.708Z,14.40
2022-11-27T01:21:05.712Z,14.40
2022-11-27T01:22:05.692Z,14.30
2022-11-27T01:23:05.675Z,14.00
2022-11-27T01:24:05.663Z,14.40
2022-11-27T01:25:06.661Z,14.50
2022-11-27T01:26:05.670Z,14.70
2022-11-27T01:27:05.633Z,14.20
2022-11-27T01:28:05.630Z,13.90
2022-11-27T01:29:05.619Z,14.20
2022-11-27T01:30:05.608Z,14.30
2022-11-27T01:31:05.663Z,14.00
2022-11-27T01:32:05.591Z,13.90
2022-11-27T01:33:05.577Z,14.40
2022-11-27T01:34:05.562Z,14.40
2022-11-27T01:35:05.550Z,14.20
2022-11-27T01:36:05.563Z,13.60
2022-11-27T01:37:05.526Z,13.10
2022-11-27T01:38:05.519Z,13.30
2022-11-27T01:39:05.503Z,12.30
2022-11-27T01:40:05.507Z,13.40
2022-11-27T01:41:05.549Z,12.90
2022-11-27T01:42:05.465Z,12.70
2022-11-27T01:43:05.454Z,12.40
2022-11-27T01:44:05.448Z,12.70
2022-11-27T01:45:05.456Z,12.20
2022-11-27T01:46:05.483Z,12.30
2022-11-27T01:47:05.416Z,12.70
2022-11-27T01:48:05.411Z,11.40
2022-11-27T01:49:05.392Z,12.00
2022-11-27T01:50:05.397Z,11.60
2022-11-27T01:51:05.387Z,11.40
2022-11-27T01:52:05.374Z,11.40
2022-11-27T01:53:05.360Z,11.30
2022-11-27T01:54:06.335Z,10.90
2022-11-27T01:55:05.328Z,11.30
2022-11-27T01:56:05.378Z,11.20
2022-11-27T01:57:05.315Z,11.50
2022-11-27T01:58:05.313Z,10.80
2022-11-27T01:59:05.318Z,10.80
2022-11-27T02:00:05.291Z,11.60
2022-11-27T02:01:05.289Z,10.80
2022-11-27T02:02:05.306Z,10.90
2022-11-27T02:03:05.340Z,11.90
2022-11-27T02:04:05.238Z,11.10
2022-11-27T02:05:05.284Z,11.50
2022-11-27T02:06:05.234Z,11.70
2022-11-27T02:07:05.204Z,11.10
2022-11-27T02:08:05.194Z,10.90
2022-11-27T02:09:05.183Z,11.40
2022-11-27T02:10:05.173Z,10.90
2022-11-27T02:11:05.193Z,11.20
2022-11-27T02:12:05.154Z,11.60
2022-11-27T02:13:05.147Z,10.80
2022-11-27T02:14:05.127Z,11.00
2022-11-27T02:15:05.106Z,11.40
2022-11-27T02:16:05.197Z,11.70
2022-11-27T02:17:05.102Z,11.30
2022-11-27T02:18:05.086Z,11.60
2022-11-27T02:19:37.481Z,11.80
2022-11-27T02:20:05.067Z,12.30
2022-11-27T02:21:05.080Z,11.50
2022-11-27T02:22:05.045Z,11.80
2022-11-27T02:23:05.044Z,11.90
2022-11-27T02:24:05.035Z,11.70
2022-11-27T02:25:05.022Z,11.90
2022-11-27T02:26:05.038Z,12.20
2022-11-27T02:27:05.001Z,12.60
2022-11-27T02:28:04.992Z,12.30
2022-11-27T02:29:04.991Z,13.10
2022-11-27T02:30:04.967Z,12.50
2022-11-27T02:31:05.041Z,11.50
2022-11-27T02:32:04.954Z,12.10
2022-11-27T02:33:04.938Z,12.10
2022-11-27T02:34:04.914Z,11.70
2022-11-27T02:35:04.928Z,11.90
2022-11-27T02:36:04.928Z,12.60
2022-11-27T02:37:04.890Z,11.90
2022-11-27T02:38:04.875Z,12.60
2022-11-27T02:39:04.868Z,11.90
2022-11-27T02:40:04.855Z,11.80
2022-11-27T02:41:04.871Z,12.30
2022-11-27T02:42:04.927Z,11.90
2022-11-27T02:43:04.838Z,11.20
2022-11-27T02:44:04.817Z,12.40
2022-11-27T02:45:04.810Z,12.00
2022-11-27T02:46:04.863Z,11.70
2022-11-27T02:47:04.792Z,11.90
2022-11-27T02:48:04.778Z,11.50
2022-11-27T02:49:04.765Z,11.80
2022-11-27T02:50:04.751Z,12.20
2022-11-27T02:51:04.748Z,12.10
2022-11-27T02:52:04.743Z,11.70
2022-11-27T02:53:04.722Z,12.60
2022-11-27T02:54:04.716Z,12.20
2022-11-27T02:55:04.704Z,12.00
2022-11-27T02:56:04.689Z,12.50
2022-11-27T02:57:04.717Z,12.50
2022-11-27T02:58:04.749Z,11.70
2022-11-27T02:59:04.658Z,12.90
2022-11-27T03:00:04.649Z,13.10
2022-11-27T03:01:04.636Z,12.00
2022-11-27T03:02:04.708Z,12.60
2022-11-27T03:03:04.748Z,12.60
2022-11-27T03:04:04.605Z,13.30
2022-11-27T03:05:04.600Z,13.10
2022-11-27T03:06:04.569Z,12.90
2022-11-27T03:07:04.583Z,12.80
2022-11-27T03:08:04.560Z,12.40
2022-11-27T03:09:04.545Z,12.50
2022-11-27T03:10:04.577Z,13.40
2022-11-27T03:11:04.525Z,13.60
2022-11-27T03:12:04.527Z,13.00
2022-11-27T03:13:04.493Z,13.10
2022-11-27T03:14:04.570Z,13.00
2022-11-27T03:15:04.510Z,13.00
2022-11-27T03:16:04.494Z,13.00
2022-11-27T03:17:04.479Z,13.60
2022-11-27T03:18:04.447Z,12.80
2022-11-27T03:19:04.429Z,12.40
2022-11-27T03:20:04.424Z,13.00
2022-11-27T03:21:04.419Z,13.70
2022-11-27T03:22:04.413Z,13.50
2022-11-27T03:23:04.388Z,13.30
2022-11-27T03:24:04.382Z,13.00
2022-11-27T03:25:04.382Z,12.70
2022-11-27T03:26:04.349Z,13.10
2022-11-27T03:27:04.377Z,12.60
2022-11-27T03:28:04.337Z,12.90
2022-11-27T03:29:04.340Z,13.00
2022-11-27T03:30:04.408Z,12.50
2022-11-27T03:31:04.354Z,12.30
2022-11-27T03:32:04.312Z,12.90
2022-11-27T03:33:04.282Z,12.60
2022-11-27T03:34:04.263Z,12.80
2022-11-27T03:35:04.252Z,12.20
2022-11-27T03:36:04.242Z,13.00
2022-11-27T03:37:04.259Z,12.00
2022-11-27T03:38:04.225Z,12.90
2022-11-27T03:39:04.208Z,12.50
2022-11-27T03:40:04.189Z,13.10
2022-11-27T03:41:05.196Z,12.70
2022-11-27T03:42:04.193Z,12.30
2022-11-27T03:43:04.172Z,12.20
2022-11-27T03:44:04.154Z,12.50
2022-11-27T03:45:04.152Z,12.40
2022-11-27T03:46:10.063Z,12.10
2022-11-27T03:47:05.315Z,11.90
2022-11-27T03:48:04.118Z,12.40
2022-11-27T03:49:04.100Z,11.80
2022-11-27T03:50:04.093Z,12.60
2022-11-27T03:51:04.087Z,12.10
2022-11-27T03:52:04.140Z,12.80
2022-11-27T03:53:04.064Z,12.60
2022-11-27T03:54:04.046Z,12.50
2022-11-27T03:55:04.040Z,12.60
2022-11-27T03:56:09.621Z,13.20
2022-11-27T03:57:06.028Z,13.10
2022-11-27T03:58:04.998Z,12.80
2022-11-27T03:59:03.992Z,13.30
2022-11-27T04:00:03.992Z,13.00
2022-11-27T04:01:03.981Z,13.10
2022-11-27T04:02:04.055Z,13.80
2022-11-27T04:03:04.049Z,13.00
2022-11-27T04:04:03.986Z,14.20
2022-11-27T04:05:03.942Z,13.30
2022-11-27T04:06:03.927Z,13.20
2022-11-27T04:07:03.936Z,13.40
2022-11-27T04:08:03.950Z,12.90
2022-11-27T04:09:03.890Z,12.60
2022-11-27T04:10:03.876Z,12.30
2022-11-27T04:11:03.867Z,12.40
2022-11-27T04:12:03.894Z,12.30
2022-11-27T04:13:03.841Z,12.50
2022-11-27T04:14:03.822Z,12.70
2022-11-27T04:15:03.821Z,12.30
2022-11-27T04:16:03.874Z,12.10
2022-11-27T04:17:03.819Z,12.80
2022-11-27T04:18:03.783Z,12.30
2022-11-27T04:19:03.864Z,12.30
2022-11-27T04:20:03.767Z,11.60
2022-11-27T04:21:03.764Z,12.70
2022-11-27T04:22:03.750Z,11.20
2022-11-27T04:23:03.734Z,11.80
2022-11-27T04:24:03.728Z,11.50
2022-11-27T04:25:03.716Z,11.30
2022-11-27T04:26:03.703Z,10.80
2022-11-27T04:27:03.718Z,10.80
2022-11-27T04:28:03.674Z,10.60
2022-11-27T04:29:03.672Z,10.50
2022-11-27T04:30:03.656Z,10.40
2022-11-27T04:31:03.667Z,10.40
2022-11-27T04:32:03.655Z,10.50
2022-11-27T04:33:03.613Z,10.40
2022-11-27T04:34:03.615Z,9.90
2022-11-27T04:35:03.688Z,10.10
2022-11-27T04:36:03.594Z,10.40
2022-11-27T04:37:03.603Z,9.70
2022-11-27T04:38:03.579Z,9.80
2022-11-27T04:39:03.563Z,10.20
2022-11-27T04:40:03.551Z,9.70
2022-11-27T04:41:03.544Z,9.60
2022-11-27T04:42:03.551Z,9.60
2022-11-27T04:43:03.511Z,10.00
2022-11-27T04:44:03.506Z,10.30
2022-11-27T04:45:03.510Z,10.50
2022-11-27T04:46:03.472Z,10.50
2022-11-27T04:47:03.591Z,10.20
2022-11-27T04:48:03.478Z,10.40
2022-11-27T04:49:03.480Z,10.50
2022-11-27T04:50:03.439Z,10.20
2022-11-27T04:51:03.506Z,10.00
2022-11-27T04:52:03.417Z,10.30
2022-11-27T04:53:03.424Z,11.00
2022-11-27T04:54:03.401Z,10.50
2022-11-27T04:55:03.382Z,10.10
2022-11-27T04:56:03.377Z,10.30
2022-11-27T04:57:03.366Z,9.90
2022-11-27T04:58:03.372Z,10.10
2022-11-27T04:59:03.340Z,10.60
2022-11-27T05:00:03.328Z,10.30
2022-11-27T05:01:03.390Z,10.50
2022-11-27T05:02:03.317Z,10.20
2022-11-27T05:03:03.376Z,9.80
2022-11-27T05:04:03.289Z,9.90
2022-11-27T05:05:03.281Z,10.40
2022-11-27T05:06:03.272Z,10.40
2022-11-27T05:07:03.353Z,9.80
2022-11-27T05:08:03.270Z,9.70
2022-11-27T05:09:03.240Z,9.20
2022-11-27T05:10:03.225Z,9.90
2022-11-27T05:11:03.220Z,9.90
2022-11-27T05:12:03.271Z,10.10
2022-11-27T05:13:03.219Z,10.10
2022-11-27T05:14:03.195Z,10.30
2022-11-27T05:15:04.578Z,10.30
2022-11-27T05:16:04.244Z,10.30
2022-11-27T05:17:03.185Z,10.80
2022-11-27T05:18:03.203Z,10.80
2022-11-27T05:19:03.148Z,10.90
2022-11-27T05:20:03.217Z,10.80
2022-11-27T05:21:03.125Z,11.60
2022-11-27T05:22:03.104Z,11.30
2022-11-27T05:23:03.197Z,11.30
2022-11-27T05:24:03.076Z,11.20
2022-11-27T05:25:03.071Z,11.50
2022-11-27T05:26:03.062Z,11.60
2022-11-27T05:27:03.048Z,11.20
2022-11-27T05:28:03.053Z,11.30
2022-11-27T05:29:03.036Z,11.60
2022-11-27T05:30:03.021Z,11.80
2022-11-27T05:31:03.036Z,12.20
2022-11-27T05:32:02.991Z,11.70
2022-11-27T05:33:02.994Z,12.00
2022-11-27T05:34:02.972Z,12.20
2022-11-27T05:35:02.959Z,11.40
2022-11-27T05:36:02.945Z,11.50
2022-11-27T05:37:02.936Z,12.20
2022-11-27T05:38:02.943Z,11.50
2022-11-27T05:39:03.004Z,10.90
2022-11-27T05:40:02.911Z,11.20
2022-11-27T05:41:02.887Z,11.10
2022-11-27T05:42:02.875Z,11.60
2022-11-27T05:43:02.889Z,11.90
2022-11-27T05:44:02.846Z,11.30
2022-11-27T05:45:02.844Z,11.10
2022-11-27T05:46:02.833Z,11.30
2022-11-27T05:47:02.866Z,11.00
2022-11-27T05:48:02.866Z,11.40
2022-11-27T05:49:02.807Z,11.10
2022-11-27T05:50:02.799Z,11.40
2022-11-27T05:51:02.783Z,11.90
2022-11-27T05:52:02.772Z,11.30
2022-11-27T05:53:02.795Z,11.30
2022-11-27T05:54:02.759Z,11.60
2022-11-27T05:55:02.828Z,11.90
2022-11-27T05:56:02.742Z,11.40
2022-11-27T05:57:02.773Z,12.10
2022-11-27T05:58:02.737Z,12.70
2022-11-27T05:59:02.703Z,11.70
2022-11-27T06:00:02.690Z,11.50
2022-11-27T06:01:02.697Z,12.00
2022-11-27T06:02:02.774Z,11.80
2022-11-27T06:03:02.797Z,11.90
2022-11-27T06:04:02.639Z,11.60
2022-11-27T06:05:02.637Z,12.50
2022-11-27T06:06:02.627Z,12.00
2022-11-27T06:07:02.620Z,12.00
2022-11-27T06:08:02.628Z,12.30
2022-11-27T06:09:04.042Z,12.70
2022-11-27T06:10:02.588Z,12.10
2022-11-27T06:11:02.654Z,12.50
2022-11-27T06:12:02.565Z,12.80
2022-11-27T06:13:02.570Z,12.50
2022-11-27T06:14:02.548Z,13.10
2022-11-27T06:15:02.538Z,13.10
2022-11-27T06:16:02.565Z,12.30
2022-11-27T06:17:02.519Z,12.50
2022-11-27T06:18:02.523Z,12.80
2022-11-27T06:19:02.495Z,12.70
2022-11-27T06:20:02.493Z,12.80
2022-11-27T06:21:02.473Z,12.50
2022-11-27T06:22:02.459Z,13.40
2022-11-27T06:23:02.529Z,13.70
2022-11-27T06:24:02.437Z,13.50
2022-11-27T06:25:02.427Z,13.40
2022-11-27T06:26:02.418Z,13.50
2022-11-27T06:27:02.493Z,13.40
2022-11-27T06:28:02.409Z,13.00
2022-11-27T06:29:02.389Z,13.40
2022-11-27T06:30:02.374Z,13.30
2022-11-27T06:31:02.367Z,12.70
2022-11-27T06:32:02.513Z,13.40
2022-11-27T06:33:02.354Z,13.10
2022-11-27T06:34:02.332Z,13.20
2022-11-27T06:35:02.352Z,13.70
2022-11-27T06:36:02.310Z,13.10
2022-11-27T06:37:02.300Z,13.10
2022-11-27T06:38:02.307Z,13.40
2022-11-27T06:39:02.277Z,13.50
2022-11-27T06:40:02.260Z,13.40
2022-11-27T06:41:02.254Z,13.20
2022-11-27T06:42:02.245Z,13.80
2022-11-27T06:43:02.343Z,13.50
2022-11-27T06:44:02.223Z,13.10
2022-11-27T06:45:02.211Z,13.50
2022-11-27T06:46:02.253Z,13.50
2022-11-27T06:47:03.192Z,13.40
2022-11-27T06:48:02.217Z,14.10
2022-11-27T06:49:02.162Z,13.10
2022-11-27T06:50:02.159Z,13.80
2022-11-27T06:51:02.142Z,13.20
2022-11-27T06:52:02.131Z,13.50
2022-11-27T06:53:02.141Z,13.20
2022-11-27T06:54:02.109Z,13.40
2022-11-27T06:55:02.176Z,13.10
2022-11-27T06:56:02.090Z,14.20
2022-11-27T06:57:02.077Z,13.90
2022-11-27T06:58:02.088Z,14.20
2022-11-27T06:59:02.136Z,14.00
2022-11-27T07:00:02.050Z,13.70
2022-11-27T07:01:02.115Z,14.60
2022-11-27T07:02:02.068Z,15.20
2022-11-27T07:03:02.022Z,14.80
2022-11-27T07:04:01.993Z,14.70
2022-11-27T07:05:01.987Z,15.70
2022-11-27T07:06:01.975Z,15.30
2022-11-27T07:07:01.965Z,15.20
2022-11-27T07:08:01.995Z,15.40
2022-11-27T07:09:01.936Z,15.80
2022-11-27T07:10:01.927Z,15.60
2022-11-27T07:11:01.922Z,15.30
2022-11-27T07:12:01.898Z,14.70
2022-11-27T07:13:01.910Z,15.00
2022-11-27T07:14:01.889Z,16.10
2022-11-27T07:15:04.351Z,15.80
2022-11-27T07:16:02.915Z,15.50
2022-11-27T07:17:01.860Z,16.30
2022-11-27T07:18:01.864Z,17.00
2022-11-27T07:19:01.833Z,15.70
2022-11-27T07:20:01.811Z,16.10
2022-11-27T07:21:01.817Z,16.10
2022-11-27T07:22:01.799Z,16.20
2022-11-27T07:23:01.807Z,15.80
2022-11-27T07:24:01.778Z,15.80
2022-11-27T07:25:01.764Z,15.40
2022-11-27T07:26:01.751Z,16.10
2022-11-27T07:27:01.743Z,16.30
2022-11-27T07:28:01.750Z,15.90
2022-11-27T07:29:01.721Z,16.30
2022-11-27T07:30:01.695Z,16.30
2022-11-27T07:31:02.781Z,15.40
2022-11-27T07:32:01.785Z,15.90
2022-11-27T07:33:01.690Z,16.40
2022-11-27T07:34:01.662Z,16.50
2022-11-27T07:35:01.650Z,16.20
2022-11-27T07:36:01.640Z,16.40
2022-11-27T07:37:01.626Z,15.90
2022-11-27T07:38:01.639Z,16.70
2022-11-27T07:39:01.606Z,16.70
2022-11-27T07:40:03.301Z,16.80
2022-11-27T07:41:02.581Z,17.00
2022-11-27T07:42:23.118Z,16.50
2022-11-27T07:43:03.577Z,16.30
2022-11-27T07:44:01.543Z,16.40
2022-11-27T07:45:01.548Z,15.60
2022-11-27T07:46:01.542Z,16.20
2022-11-27T07:47:01.604Z,16.70
2022-11-27T07:48:01.524Z,16.40
2022-11-27T07:49:01.503Z,15.30
2022-11-27T07:50:01.487Z,15.70
2022-11-27T07:51:01.479Z,15.70
2022-11-27T07:52:01.457Z,15.60
2022-11-27T07:53:01.466Z,15.30
2022-11-27T07:54:01.434Z,14.70
2022-11-27T07:55:01.447Z,15.30
2022-11-27T07:56:01.416Z,14.90
2022-11-27T07:57:01.412Z,15.10
2022-11-27T07:58:01.428Z,16.20
2022-11-27T07:59:01.402Z,15.10
2022-11-27T08:00:01.375Z,15.20
2022-11-27T08:01:01.397Z,15.00
2022-11-27T08:02:01.350Z,15.50
2022-11-27T08:03:01.439Z,15.00
2022-11-27T08:04:01.325Z,15.50
2022-11-27T08:05:01.387Z,15.30
2022-11-27T08:06:01.307Z,15.10
2022-11-27T08:07:01.302Z,14.80
2022-11-27T08:08:01.354Z,15.00
2022-11-27T08:09:01.277Z,15.10
2022-11-27T08:10:01.251Z,15.50
2022-11-27T08:11:01.247Z,15.00
2022-11-27T08:12:01.232Z,14.90
2022-11-27T08:13:01.230Z,14.90
2022-11-27T08:14:01.250Z,14.50
2022-11-27T08:15:01.205Z,15.40
2022-11-27T08:16:01.216Z,14.50
2022-11-27T08:17:01.173Z,14.10
2022-11-27T08:18:01.173Z,14.70
2022-11-27T08:19:01.282Z,14.30
2022-11-27T08:20:01.208Z,14.40
2022-11-27T08:21:01.141Z,14.80
2022-11-27T08:22:01.124Z,14.60
2022-11-27T08:23:03.029Z,14.70
2022-11-27T08:24:01.121Z,14.80
2022-11-27T08:25:01.093Z,14.70
2022-11-27T08:26:01.089Z,14.80
2022-11-27T08:27:32.979Z,15.20
2022-11-27T08:28:01.058Z,15.40
2022-11-27T08:29:01.065Z,15.10
2022-11-27T08:30:01.045Z,15.20
2022-11-27T08:31:01.040Z,15.30
2022-11-27T08:32:01.103Z,15.20
2022-11-27T08:33:01.013Z,15.00
2022-11-27T08:34:01.028Z,14.40
2022-11-27T08:35:02.116Z,15.30
2022-11-27T08:36:00.995Z,15.00
2022-11-27T08:37:00.954Z,14.10
2022-11-27T08:38:00.947Z,14.70
2022-11-27T08:39:00.950Z,15.00
2022-11-27T08:40:00.954Z,14.20
2022-11-27T08:41:00.924Z,15.40
2022-11-27T08:42:00.911Z,14.50
2022-11-27T08:43:00.887Z,14.70
2022-11-27T08:44:02.035Z,14.30
2022-11-27T08:45:00.866Z,14.70
2022-11-27T08:46:00.891Z,14.50
2022-11-27T08:47:00.833Z,15.30
2022-11-27T08:48:00.832Z,15.00
2022-11-27T08:49:00.854Z,15.50
2022-11-27T08:50:00.828Z,15.40
2022-11-27T08:51:00.892Z,15.30
2022-11-27T08:52:00.789Z,15.60
2022-11-27T08:53:00.805Z,15.60
2022-11-27T08:54:00.774Z,14.90
2022-11-27T08:55:00.749Z,14.80
2022-11-27T08:56:00.745Z,15.00
2022-11-27T08:57:00.727Z,14.80
2022-11-27T08:58:00.735Z,14.80
2022-11-27T08:59:00.763Z,15.10
2022-11-27T09:00:00.713Z,15.00
2022-11-27T09:01:00.723Z,15.60
2022-11-27T09:02:00.668Z,15.80
2022-11-27T09:03:00.654Z,14.40
2022-11-27T09:04:00.711Z,14.80
2022-11-27T09:05:00.639Z,15.40
2022-11-27T09:06:00.627Z,15.70
2022-11-27T09:07:00.696Z,15.90
2022-11-27T09:08:00.667Z,16.70
2022-11-27T09:09:00.613Z,15.60
2022-11-27T09:10:00.583Z,15.60
2022-11-27T09:11:00.561Z,15.50
2022-11-27T09:12:00.558Z,14.60
2022-11-27T09:13:00.576Z,14.50
2022-11-27T09:14:00.558Z,14.60
2022-11-27T09:15:00.527Z,15.10
2022-11-27T09:16:00.592Z,14.70
2022-11-27T09:17:00.543Z,14.90
2022-11-27T09:18:00.486Z,14.30
2022-11-27T09:19:00.491Z,14.90
2022-11-27T09:20:00.474Z,14.70
2022-11-27T09:21:00.469Z,15.30
2022-11-27T09:22:00.449Z,14.30
2022-11-27T09:23:00.513Z,14.50
2022-11-27T09:24:00.471Z,15.00
2022-11-27T09:25:00.413Z,14.20
2022-11-27T09:26:00.402Z,14.30
2022-11-27T09:27:00.379Z,14.50
2022-11-27T09:28:00.395Z,15.00
2022-11-27T09:29:00.406Z,14.20
2022-11-27T09:30:00.363Z,14.00
2022-11-27T09:31:00.357Z,14.30
2022-11-27T09:32:00.479Z,14.70
2022-11-27T09:33:00.325Z,14.40
2022-11-27T09:34:00.326Z,13.50
2022-11-27T09:35:00.353Z,13.70
2022-11-27T09:36:00.286Z,13.50
2022-11-27T09:37:00.333Z,14.00
2022-11-27T09:38:00.281Z,13.50
2022-11-27T09:39:00.369Z,13.50
2022-11-27T09:40:00.241Z,14.00
2022-11-27T09:41:03.084Z,12.40
2022-11-27T09:42:01.232Z,13.20
2022-11-27T09:43:00.212Z,13.60
2022-11-27T09:44:00.219Z,13.10
2022-11-27T09:45:00.193Z,13.10
2022-11-27T09:46:00.252Z,12.80
2022-11-27T09:47:00.170Z,12.80
2022-11-27T09:48:00.166Z,12.40
2022-11-27T09:49:00.181Z,11.60
2022-11-27T09:50:00.134Z,12.70
2022-11-27T09:51:00.134Z,12.20
2022-11-27T09:52:00.126Z,12.30
2022-11-27T09:53:00.096Z,12.00
2022-11-27T09:54:01.123Z,12.50
2022-11-27T09:55:00.176Z,12.50
2022-11-27T09:56:01.074Z,12.70
2022-11-27T09:57:00.061Z,12.30
2022-11-27T09:58:00.046Z,12.00
2022-11-27T09:59:00.071Z,11.60
2022-11-27T10:00:00.803Z,11.80
2022-11-27T10:01:00.022Z,11.90
2022-11-27T10:02:00.161Z,11.40
2022-11-27T10:03:00.136Z,12.60
2022-11-27T10:04:00.011Z,12.00
2022-11-27T10:05:15.845Z,11.40
2022-11-27T10:06:01.975Z,12.00
2022-11-27T10:06:59.960Z,12.00
2022-11-27T10:08:06.023Z,11.90
2022-11-27T10:09:01.967Z,11.40
2022-11-27T10:09:59.921Z,11.70
2022-11-27T10:11:00.008Z,11.70
2022-11-27T10:11:59.912Z,11.80
2022-11-27T10:12:59.908Z,11.60
2022-11-27T10:13:59.906Z,12.50
2022-11-27T10:14:59.885Z,12.00
2022-11-27T10:15:59.868Z,12.70
2022-11-27T10:16:59.923Z,13.90
2022-11-27T10:17:59.844Z,15.90
2022-11-27T10:18:59.853Z,16.30
2022-11-27T10:19:59.867Z,14.90
2022-11-27T10:20:59.819Z,14.30
2022-11-27T10:21:59.798Z,14.20
2022-11-27T10:22:59.796Z,13.50
2022-11-27T10:23:59.796Z,13.40
2022-11-27T10:25:00.764Z,12.30
2022-11-27T10:25:59.755Z,12.10
2022-11-27T10:26:59.828Z,13.20
2022-11-27T10:27:59.736Z,12.70
2022-11-27T10:28:59.752Z,12.60
2022-11-27T10:29:59.717Z,12.50
2022-11-27T10:30:59.706Z,12.60
2022-11-27T10:31:59.761Z,13.20
2022-11-27T10:32:59.739Z,12.40
2022-11-27T10:33:59.691Z,12.90
2022-11-27T10:34:59.663Z,12.30
2022-11-27T10:35:59.652Z,12.40
2022-11-27T10:36:59.649Z,11.30
2022-11-27T10:38:03.694Z,10.90
2022-11-27T10:39:00.656Z,10.40
2022-11-27T10:39:59.623Z,11.10
2022-11-27T10:40:59.600Z,11.20
2022-11-27T10:41:59.577Z,11.10
2022-11-27T10:42:59.658Z,11.30
2022-11-27T10:44:01.703Z,11.90
2022-11-27T10:44:59.565Z,10.70
2022-11-27T10:46:00.637Z,11.00
2022-11-27T10:46:59.538Z,11.10
2022-11-27T10:47:59.533Z,11.50
2022-11-27T10:48:59.548Z,10.80
2022-11-27T10:49:59.506Z,10.10
2022-11-27T10:50:59.507Z,9.30
2022-11-27T10:51:59.497Z,10.10
2022-11-27T10:52:59.482Z,9.70
2022-11-27T10:54:00.510Z,9.40
2022-11-27T10:54:59.461Z,10.20
2022-11-27T10:55:59.457Z,9.60
2022-11-27T10:56:59.442Z,9.70
2022-11-27T10:57:59.441Z,10.60
2022-11-27T10:58:59.506Z,11.10
2022-11-27T10:59:59.426Z,12.50
2022-11-27T11:01:00.483Z,10.30
2022-11-27T11:01:59.441Z,11.30
2022-11-27T11:02:59.381Z,10.80
2022-11-27T11:03:59.388Z,10.80
2022-11-27T11:05:30.115Z,10.90
2022-11-27T11:07:01.344Z,12.60
2022-11-27T11:07:59.422Z,13.20
2022-11-27T11:09:01.433Z,11.60
2022-11-27T11:10:00.335Z,10.80
2022-11-27T11:10:59.301Z,9.80
2022-11-27T11:11:59.308Z,9.00
2022-11-27T11:12:59.299Z,8.70
2022-11-27T11:13:59.271Z,11.10
2022-11-27T11:14:59.376Z,17.50
2022-11-27T11:15:59.252Z,12.70
2022-11-27T11:16:59.297Z,13.10
2022-11-27T11:17:59.231Z,13.30
2022-11-27T11:18:59.223Z,23.80
2022-11-27T11:19:59.240Z,61.10
2022-11-27T11:20:59.203Z,26.30
2022-11-27T11:21:59.208Z,25.00
2022-11-27T11:22:59.191Z,14.80
2022-11-27T11:23:59.175Z,12.70
2022-11-27T11:24:59.178Z,9.30
2022-11-27T11:25:59.182Z,8.20
2022-11-27T11:26:59.151Z,8.00
2022-11-27T11:27:59.139Z,7.50
2022-11-27T11:28:59.139Z,7.30
2022-11-27T11:29:59.142Z,7.00
2022-11-27T11:30:59.189Z,7.20
2022-11-27T11:31:59.191Z,7.00
2022-11-27T11:32:59.089Z,6.90
2022-11-27T11:33:59.084Z,6.90
2022-11-27T11:35:01.080Z,6.40
2022-11-27T11:36:00.067Z,6.80
2022-11-27T11:36:59.054Z,7.00
2022-11-27T11:37:59.037Z,7.20
2022-11-27T11:38:59.033Z,7.50
2022-11-27T11:39:59.046Z,7.10
2022-11-27T11:40:59.021Z,7.00
2022-11-27T11:41:59.008Z,7.10
2022-11-27T11:42:59.009Z,7.40
2022-11-27T11:43:58.991Z,6.60
2022-11-27T11:44:58.989Z,6.90
2022-11-27T11:45:58.990Z,6.50
2022-11-27T11:46:59.029Z,7.00
2022-11-27T11:47:58.942Z,7.40
2022-11-27T11:48:58.937Z,6.60
2022-11-27T11:49:58.945Z,6.60
2022-11-27T11:50:58.911Z,6.80
2022-11-27T11:51:58.904Z,7.00
2022-11-27T11:52:58.883Z,7.40
2022-11-27T11:53:58.879Z,6.70
2022-11-27T11:54:58.890Z,6.40
2022-11-27T11:55:58.870Z,6.20
2022-11-27T11:56:58.841Z,6.30
2022-11-27T11:57:58.858Z,6.20
2022-11-27T11:58:58.839Z,6.50
2022-11-27T11:59:58.845Z,6.10
2022-11-27T12:01:25.396Z,7.40
2022-11-27T12:02:00.832Z,7.80
2022-11-27T12:02:58.884Z,6.80
2022-11-27T12:03:58.862Z,6.40
2022-11-27T12:04:58.807Z,6.30
2022-11-27T12:05:58.767Z,6.10
2022-11-27T12:06:58.759Z,5.90
2022-11-27T12:07:58.811Z,5.90
2022-11-27T12:08:58.732Z,6.50
2022-11-27T12:09:58.773Z,6.50
2022-11-27T12:10:58.721Z,6.60
2022-11-27T12:11:58.722Z,9.50
2022-11-27T12:12:58.703Z,9.50
2022-11-27T12:13:58.693Z,7.70
2022-11-27T12:14:58.706Z,7.30
2022-11-27T12:15:58.679Z,6.80
2022-11-27T12:16:58.715Z,6.50
2022-11-27T12:17:58.651Z,6.70
2022-11-27T12:18:58.724Z,6.50
2022-11-27T12:19:58.652Z,6.20
2022-11-27T12:20:58.639Z,5.90
2022-11-27T12:21:58.650Z,5.70
2022-11-27T12:22:58.596Z,5.70
2022-11-27T12:23:58.626Z,6.00
2022-11-27T12:24:58.621Z,6.10
2022-11-27T12:25:58.623Z,6.40
2022-11-27T12:26:58.586Z,6.10
2022-11-27T12:27:58.560Z,5.90
2022-11-27T12:28:59.503Z,5.90
2022-11-27T12:29:58.550Z,5.60
2022-11-27T12:30:58.516Z,5.70
2022-11-27T12:31:58.545Z,5.90
2022-11-27T12:32:58.483Z,5.70
2022-11-27T12:33:58.485Z,5.30
2022-11-27T12:34:58.582Z,5.30
2022-11-27T12:35:58.476Z,5.20
2022-11-27T12:36:58.492Z,5.40
2022-11-27T12:37:58.475Z,5.10
2022-11-27T12:38:58.443Z,5.30
2022-11-27T12:39:58.457Z,5.10
2022-11-27T12:40:58.418Z,5.30
2022-11-27T12:41:58.419Z,6.00
2022-11-27T12:42:58.404Z,5.40
2022-11-27T12:43:58.390Z,5.00
2022-11-27T12:44:58.394Z,5.20
2022-11-27T12:45:58.415Z,7.00
2022-11-27T12:46:58.370Z,10.00
2022-11-27T12:47:58.373Z,20.60
2022-11-27T12:48:58.329Z,42.30
2022-11-27T12:49:58.353Z,18.60
2022-11-27T12:50:58.406Z,9.30
2022-11-27T12:51:58.310Z,6.50
2022-11-27T12:52:58.304Z,5.40
2022-11-27T12:53:58.290Z,5.00
2022-11-27T12:54:58.319Z,5.20
2022-11-27T12:55:58.280Z,4.90
2022-11-27T12:56:58.268Z,5.30